createdAt,value
2018-11-20T00:00:43.966Z,978.3
2018-11-20T00:01:45.124Z,978.4
2018-11-20T00:02:46.313Z,978.5
2018-11-20T00:03:47.484Z,978.4
2018-11-20T00:04:48.625Z,978.5
2018-11-20T00:05:49.830Z,978.4
2018-11-20T00:06:51.040Z,978.5
2018-11-20T00:07:52.169Z,978.4
2018-11-20T00:08:53.571Z,978.4
2018-11-20T00:09:54.701Z,978.5
2018-11-20T00:10:55.859Z,978.4
2018-11-20T00:11:57.016Z,978.7
2018-11-20T00:12:58.916Z,978.2
2018-11-20T00:14:00.062Z,978.5
2018-11-20T00:15:01.196Z,978
2018-11-20T00:16:02.357Z,978.1
2018-11-20T00:17:03.541Z,978.2
2018-11-20T00:18:04.690Z,978.3
2018-11-20T00:19:05.877Z,978.2
2018-11-20T00:20:07.067Z,978.1
2018-11-20T00:21:08.223Z,978.1
2018-11-20T00:22:09.413Z,978.2
2018-11-20T00:23:12.121Z,978.1
2018-11-20T00:24:13.315Z,978.5
2018-11-20T00:25:14.478Z,978.3
2018-11-20T00:26:15.959Z,978.3
2018-11-20T00:27:17.135Z,978.1
2018-11-20T00:28:18.270Z,978.4
2018-11-20T00:29:19.422Z,978
2018-11-20T00:30:20.542Z,977.9
2018-11-20T00:31:21.675Z,978
2018-11-20T00:32:22.872Z,978.1
2018-11-20T00:33:24.206Z,978
2018-11-20T00:34:25.340Z,977.9
2018-11-20T00:35:26.482Z,977.9
2018-11-20T00:36:33.505Z,977.9
2018-11-20T00:37:34.682Z,977.8
2018-11-20T00:38:35.822Z,977.9
2018-11-20T00:39:38.292Z,977.9
2018-11-20T00:40:39.445Z,977.9
2018-11-20T00:41:40.593Z,977.9
2018-11-20T00:42:43.694Z,977.7
2018-11-20T00:43:44.847Z,977.8
2018-11-20T00:44:45.969Z,977.8
2018-11-20T00:45:47.099Z,977.8
2018-11-20T00:46:48.273Z,977.7
2018-11-20T00:47:49.482Z,977.6
2018-11-20T00:48:50.611Z,977.7
2018-11-20T00:49:51.763Z,977.8
2018-11-20T00:50:52.910Z,977.7
2018-11-20T00:51:54.065Z,977.8
2018-11-20T00:52:55.225Z,977.8
2018-11-20T00:53:56.363Z,977.8
2018-11-20T00:54:57.485Z,977.7
2018-11-20T00:55:58.675Z,977.8
2018-11-20T00:56:59.810Z,977.6
2018-11-20T00:58:00.985Z,977.8
2018-11-20T00:59:02.128Z,977.7
2018-11-20T01:00:03.343Z,977.7
2018-11-20T01:01:04.466Z,977.7
2018-11-20T01:02:05.615Z,977.7
2018-11-20T01:03:06.778Z,977.7
2018-11-20T01:04:08.232Z,977.7
2018-11-20T01:05:09.371Z,977.6
2018-11-20T01:06:10.517Z,977.7
2018-11-20T01:07:11.653Z,977.6
2018-11-20T01:08:15.707Z,977.6
2018-11-20T01:09:17.037Z,977.6
2018-11-20T01:10:18.189Z,977.8
2018-11-20T01:11:19.322Z,977.6
2018-11-20T01:12:20.458Z,977.7
2018-11-20T01:13:21.626Z,977.6
2018-11-20T01:14:22.748Z,977.6
2018-11-20T01:15:24.136Z,977.5
2018-11-20T01:16:25.257Z,977.5
2018-11-20T01:17:26.403Z,977.5
2018-11-20T01:18:27.570Z,977.5
2018-11-20T01:19:28.704Z,977.5
2018-11-20T01:20:29.853Z,977.5
2018-11-20T01:21:31.018Z,977.5
2018-11-20T01:22:32.163Z,977.4
2018-11-20T01:23:33.600Z,977.4
2018-11-20T01:24:34.738Z,977.4
2018-11-20T01:25:35.870Z,977.3
2018-11-20T01:26:37.021Z,977.3
2018-11-20T01:27:38.173Z,977.2
2018-11-20T01:28:39.366Z,977.3
2018-11-20T01:29:40.499Z,977.3
2018-11-20T01:30:41.650Z,977.2
2018-11-20T01:31:42.792Z,977.3
2018-11-20T01:32:43.933Z,977.2
2018-11-20T01:33:45.137Z,977.2
2018-11-20T01:34:46.281Z,977.2
2018-11-20T01:35:47.410Z,977.3
2018-11-20T01:36:48.550Z,977.2
2018-11-20T01:37:49.710Z,977.2
2018-11-20T01:38:50.902Z,977.1
2018-11-20T01:39:52.081Z,977.2
2018-11-20T01:40:53.252Z,977.1
2018-11-20T01:41:54.409Z,977.2
2018-11-20T01:42:55.581Z,977.1
2018-11-20T01:43:56.769Z,977.1
2018-11-20T01:44:57.897Z,977
2018-11-20T01:45:59.064Z,977.1
2018-11-20T01:47:02.101Z,977
2018-11-20T01:48:03.246Z,977.1
2018-11-20T01:49:04.430Z,977
2018-11-20T01:50:05.600Z,977
2018-11-20T01:51:06.783Z,977.1
2018-11-20T01:52:07.890Z,977.2
2018-11-20T01:53:09.044Z,977
2018-11-20T01:54:10.227Z,977
2018-11-20T01:55:11.374Z,976.9
2018-11-20T01:56:13.662Z,976.8
2018-11-20T01:57:14.823Z,976.8
2018-11-20T01:58:15.960Z,976.9
2018-11-20T01:59:17.158Z,976.8
2018-11-20T02:00:18.288Z,976.8
2018-11-20T02:01:19.423Z,976.8
2018-11-20T02:02:20.557Z,976.8
2018-11-20T02:03:21.715Z,976.7
2018-11-20T02:04:22.869Z,976.7
2018-11-20T02:05:24.031Z,976.8
2018-11-20T02:06:28.238Z,976.7
2018-11-20T02:07:29.369Z,976.7
2018-11-20T02:08:30.500Z,976.8
2018-11-20T02:09:31.721Z,976.8
2018-11-20T02:10:33.182Z,976.7
2018-11-20T02:11:34.309Z,976.7
2018-11-20T02:12:36.494Z,976.6
2018-11-20T02:13:37.629Z,976.7
2018-11-20T02:14:38.786Z,976.7
2018-11-20T02:15:39.925Z,976.7
2018-11-20T02:16:41.055Z,976.7
2018-11-20T02:18:57.789Z,976.6
2018-11-20T02:19:58.962Z,976.7
2018-11-20T02:21:00.102Z,976.7
2018-11-20T02:22:01.230Z,976.7
2018-11-20T02:23:02.362Z,976.7
2018-11-20T02:24:03.513Z,976.7
2018-11-20T02:25:04.708Z,976.7
2018-11-20T02:26:05.841Z,976.7
2018-11-20T02:27:06.996Z,976.7
2018-11-20T02:28:08.128Z,976.5
2018-11-20T02:29:09.279Z,976.6
2018-11-20T02:30:10.429Z,976.8
2018-11-20T02:31:11.628Z,976.6
2018-11-20T02:32:12.768Z,976.7
2018-11-20T02:33:13.906Z,976.6
2018-11-20T02:34:15.062Z,976.6
2018-11-20T02:35:16.218Z,976.6
2018-11-20T02:36:17.353Z,976.7
2018-11-20T02:37:18.505Z,976.6
2018-11-20T02:38:19.638Z,976.6
2018-11-20T02:39:20.799Z,976.7
2018-11-20T02:40:21.990Z,976.7
2018-11-20T02:41:23.414Z,976.6
2018-11-20T02:42:24.633Z,976.6
2018-11-20T02:43:25.808Z,976.6
2018-11-20T02:44:26.955Z,976.6
2018-11-20T02:45:28.141Z,976.7
2018-11-20T02:46:29.267Z,976.7
2018-11-20T02:47:30.421Z,976.7
2018-11-20T02:48:31.561Z,976.7
2018-11-20T02:49:32.694Z,976.7
2018-11-20T02:50:33.841Z,976.6
2018-11-20T02:51:35.094Z,976.6
2018-11-20T02:52:36.128Z,976.5
2018-11-20T02:53:38.324Z,976.5
2018-11-20T02:54:39.490Z,976.6
2018-11-20T02:55:41.075Z,976.6
2018-11-20T02:56:42.310Z,976.6
2018-11-20T02:57:43.470Z,976.6
2018-11-20T02:58:44.608Z,976.3
2018-11-20T02:59:45.768Z,976.5
2018-11-20T03:00:46.933Z,976.5
2018-11-20T03:01:48.126Z,976.3
2018-11-20T03:02:49.288Z,976.5
2018-11-20T03:03:50.943Z,976.5
2018-11-20T03:04:51.968Z,976.5
2018-11-20T03:05:53.238Z,976.5
2018-11-20T03:06:55.030Z,976.5
2018-11-20T03:07:56.413Z,976.5
2018-11-20T03:08:58.101Z,976.5
2018-11-20T03:09:59.304Z,976.5
2018-11-20T03:11:00.501Z,976.5
2018-11-20T03:12:01.627Z,976.5
2018-11-20T03:13:02.755Z,976.5
2018-11-20T03:14:03.895Z,976.5
2018-11-20T03:15:05.025Z,976.4
2018-11-20T03:16:06.177Z,976.5
2018-11-20T03:17:07.430Z,976.5
2018-11-20T03:18:08.580Z,976.4
2018-11-20T03:19:09.739Z,976.5
2018-11-20T03:20:10.878Z,976.4
2018-11-20T03:21:12.123Z,976.4
2018-11-20T03:22:13.324Z,976.4
2018-11-20T03:23:14.473Z,976.4
2018-11-20T03:24:15.637Z,976.4
2018-11-20T03:25:16.759Z,976.4
2018-11-20T03:26:17.919Z,976.4
2018-11-20T03:27:19.067Z,976.4
2018-11-20T03:28:20.217Z,976.4
2018-11-20T03:29:21.347Z,976.5
2018-11-20T03:30:22.481Z,976.3
2018-11-20T03:31:23.680Z,976.4
2018-11-20T03:32:27.022Z,976.3
2018-11-20T03:33:28.173Z,976.1
2018-11-20T03:34:29.329Z,976.3
2018-11-20T03:35:30.470Z,976.2
2018-11-20T03:36:31.658Z,976.2
2018-11-20T03:37:33.571Z,976.3
2018-11-20T03:38:34.730Z,976.3
2018-11-20T03:39:35.868Z,976.3
2018-11-20T03:40:37.007Z,976.3
2018-11-20T03:41:38.194Z,976.1
2018-11-20T03:42:39.571Z,976.2
2018-11-20T03:43:40.706Z,976.2
2018-11-20T03:44:42.144Z,976.1
2018-11-20T03:45:43.337Z,976.2
2018-11-20T03:46:44.494Z,976.1
2018-11-20T03:47:45.766Z,976
2018-11-20T03:48:47.846Z,976
2018-11-20T03:49:49.173Z,975.8
2018-11-20T03:50:50.383Z,976.1
2018-11-20T03:51:54.417Z,976.2
2018-11-20T03:52:55.577Z,976.1
2018-11-20T03:53:56.719Z,976
2018-11-20T03:54:57.876Z,976
2018-11-20T03:56:00.118Z,976.1
2018-11-20T03:57:01.338Z,976
2018-11-20T03:58:02.641Z,976
2018-11-20T03:59:03.821Z,976.1
2018-11-20T04:00:05.254Z,976
2018-11-20T04:01:15.861Z,976
2018-11-20T04:02:17.087Z,976.1
2018-11-20T04:03:18.231Z,976.1
2018-11-20T04:04:19.423Z,976.1
2018-11-20T04:05:20.794Z,976
2018-11-20T04:06:24.990Z,976
2018-11-20T04:07:26.176Z,976
2018-11-20T04:08:27.534Z,975.9
2018-11-20T04:09:29.282Z,976
2018-11-20T04:10:30.593Z,975.8
2018-11-20T04:11:31.771Z,975.9
2018-11-20T04:12:33.113Z,975.9
2018-11-20T04:13:34.270Z,975.8
2018-11-20T04:14:35.460Z,975.9
2018-11-20T04:15:36.625Z,975.8
2018-11-20T04:16:37.821Z,975.8
2018-11-20T04:17:39.049Z,975.8
2018-11-20T04:18:40.174Z,975.7
2018-11-20T04:19:41.334Z,975.7
2018-11-20T04:20:42.523Z,975.7
2018-11-20T04:21:43.973Z,975.7
2018-11-20T04:22:45.191Z,975.6
2018-11-20T04:23:46.346Z,975.6
2018-11-20T04:24:47.474Z,975.6
2018-11-20T04:25:48.606Z,975.5
2018-11-20T04:26:52.265Z,975.5
2018-11-20T04:27:53.696Z,975.6
2018-11-20T04:28:54.869Z,975.6
2018-11-20T04:29:56.018Z,975.7
2018-11-20T04:30:57.187Z,975.7
2018-11-20T04:31:58.351Z,975.7
2018-11-20T04:32:59.533Z,975.6
2018-11-20T04:34:00.867Z,975.6
2018-11-20T04:35:02.033Z,975.5
2018-11-20T04:36:03.171Z,975.6
2018-11-20T04:37:04.319Z,975.4
2018-11-20T04:38:05.543Z,975.6
2018-11-20T04:39:06.685Z,975.6
2018-11-20T04:40:07.834Z,975.6
2018-11-20T04:41:09.134Z,975.6
2018-11-20T04:42:10.280Z,975.6
2018-11-20T04:43:11.485Z,975.6
2018-11-20T04:44:12.618Z,975.6
2018-11-20T04:45:13.755Z,975.6
2018-11-20T04:46:14.883Z,975.5
2018-11-20T04:47:16.017Z,975.6
2018-11-20T04:48:17.187Z,975.6
2018-11-20T04:49:23.406Z,975.7
2018-11-20T04:50:27.015Z,975.6
2018-11-20T04:51:28.174Z,975.5
2018-11-20T04:52:29.322Z,975.5
2018-11-20T04:53:30.494Z,975.5
2018-11-20T04:54:31.668Z,975.5
2018-11-20T04:55:32.809Z,975.5
2018-11-20T04:56:34.167Z,975.6
2018-11-20T04:57:35.411Z,975.6
2018-11-20T04:58:36.529Z,975.6
2018-11-20T04:59:37.696Z,975.5
2018-11-20T05:00:38.834Z,975.5
2018-11-20T05:01:39.991Z,975.6
2018-11-20T05:02:41.237Z,975.6
2018-11-20T05:03:42.409Z,975.6
2018-11-20T05:04:43.553Z,975.6
2018-11-20T05:05:44.692Z,975.6
2018-11-20T05:06:45.908Z,975.6
2018-11-20T05:07:47.312Z,975.7
2018-11-20T05:08:48.468Z,975.6
2018-11-20T05:09:49.619Z,975.7
2018-11-20T05:10:50.777Z,975.7
2018-11-20T05:11:52.210Z,975.6
2018-11-20T05:12:53.350Z,975.7
2018-11-20T05:13:54.831Z,975.7
2018-11-20T05:14:55.973Z,975.6
2018-11-20T05:15:57.126Z,975.7
2018-11-20T05:16:58.274Z,975.7
2018-11-20T05:19:07.259Z,975.7
2018-11-20T05:20:08.426Z,975.6
2018-11-20T05:21:09.567Z,975.8
2018-11-20T05:22:10.728Z,975.8
2018-11-20T05:23:16.018Z,975.8
2018-11-20T05:24:17.239Z,975.8
2018-11-20T05:25:18.377Z,975.7
2018-11-20T05:26:24.579Z,975.8
2018-11-20T05:27:25.724Z,975.8
2018-11-20T05:28:26.869Z,975.8
2018-11-20T05:29:28.080Z,975.8
2018-11-20T05:30:29.244Z,975.8
2018-11-20T05:31:30.396Z,975.8
2018-11-20T05:32:31.594Z,975.9
2018-11-20T05:33:32.778Z,975.7
2018-11-20T05:34:33.969Z,975.8
2018-11-20T05:35:35.900Z,975.7
2018-11-20T05:36:37.058Z,975.8
2018-11-20T05:37:38.193Z,975.8
2018-11-20T05:38:39.326Z,975.8
2018-11-20T05:39:40.542Z,975.8
2018-11-20T05:40:41.706Z,975.8
2018-11-20T05:41:42.860Z,975.8
2018-11-20T05:42:43.994Z,975.9
2018-11-20T05:43:46.154Z,975.7
2018-11-20T05:44:47.724Z,975.9
2018-11-20T05:45:48.888Z,975.7
2018-11-20T05:46:50.055Z,975.8
2018-11-20T05:47:51.211Z,975.8
2018-11-20T05:48:52.355Z,975.7
2018-11-20T05:49:53.561Z,975.8
2018-11-20T05:50:54.689Z,975.7
2018-11-20T05:51:55.839Z,975.7
2018-11-20T05:52:57.003Z,975.7
2018-11-20T05:54:00.402Z,975.7
2018-11-20T05:55:02.962Z,975.7
2018-11-20T05:56:04.223Z,975.7
2018-11-20T05:57:05.419Z,975.7
2018-11-20T05:58:06.653Z,975.8
2018-11-20T05:59:07.731Z,975.7
2018-11-20T06:00:08.962Z,975.7
2018-11-20T06:01:10.163Z,975.8
2018-11-20T06:02:11.325Z,975.8
2018-11-20T06:03:12.512Z,975.6
2018-11-20T06:04:13.717Z,975.8
2018-11-20T06:05:15.221Z,975.8
2018-11-20T06:06:21.691Z,975.8
2018-11-20T06:07:22.930Z,975.7
2018-11-20T06:08:24.164Z,975.8
2018-11-20T06:09:25.345Z,975.8
2018-11-20T06:10:26.552Z,975.7
2018-11-20T06:11:27.698Z,975.8
2018-11-20T06:12:30.180Z,975.8
2018-11-20T06:13:31.385Z,975.9
2018-11-20T06:14:32.570Z,975.9
2018-11-20T06:15:33.849Z,976.2
2018-11-20T06:16:35.196Z,976
2018-11-20T06:17:39.548Z,976.1
2018-11-20T06:18:40.800Z,976.1
2018-11-20T06:19:41.994Z,976
2018-11-20T06:20:43.242Z,976
2018-11-20T06:21:44.451Z,976
2018-11-20T06:22:45.640Z,976
2018-11-20T06:23:46.767Z,976.1
2018-11-20T06:24:47.939Z,976.1
2018-11-20T06:25:49.139Z,976.1
2018-11-20T06:26:50.307Z,976.1
2018-11-20T06:27:54.775Z,976.1
2018-11-20T06:28:56.057Z,976.1
2018-11-20T06:29:57.140Z,976.1
2018-11-20T06:30:58.391Z,976.2
2018-11-20T06:31:59.558Z,976
2018-11-20T06:33:00.796Z,976
2018-11-20T06:34:02.020Z,976
2018-11-20T06:35:03.331Z,976.1
2018-11-20T06:36:04.769Z,976.2
2018-11-20T06:37:05.975Z,975.7
2018-11-20T06:38:07.157Z,976.1
2018-11-20T06:39:08.341Z,976.1
2018-11-20T06:40:09.746Z,976
2018-11-20T06:41:13.763Z,976.2
2018-11-20T06:42:14.930Z,976.2
2018-11-20T06:43:16.114Z,976.3
2018-11-20T06:44:21.251Z,976.2
2018-11-20T06:45:22.506Z,976.1
2018-11-20T06:46:27.080Z,976.2
2018-11-20T06:47:28.293Z,976.1
2018-11-20T06:48:29.462Z,976.1
2018-11-20T06:49:30.597Z,976.1
2018-11-20T06:50:31.879Z,976.2
2018-11-20T06:51:33.067Z,976.2
2018-11-20T06:52:34.232Z,976.1
2018-11-20T06:53:35.861Z,975.9
2018-11-20T06:54:37.171Z,976.1
2018-11-20T06:55:38.377Z,976.2
2018-11-20T06:56:39.628Z,976.1
2018-11-20T06:57:40.829Z,976.1
2018-11-20T06:58:42.012Z,976.1
2018-11-20T06:59:45.713Z,976.1
2018-11-20T07:00:46.865Z,976
2018-11-20T07:01:50.303Z,976.1
2018-11-20T07:02:51.465Z,976
2018-11-20T07:03:52.653Z,975.9
2018-11-20T07:04:57.850Z,976
2018-11-20T07:05:59.053Z,975.7
2018-11-20T07:07:00.644Z,975.8
2018-11-20T07:08:02.267Z,976
2018-11-20T07:09:03.256Z,975.9
2018-11-20T07:10:04.465Z,975.8
2018-11-20T07:11:05.639Z,975.7
2018-11-20T07:12:06.869Z,975.9
2018-11-20T07:13:07.993Z,975.9
2018-11-20T07:14:20.777Z,975.9
2018-11-20T07:15:22.230Z,975.9
2018-11-20T07:16:23.532Z,975.8
2018-11-20T07:17:25.272Z,975.9
2018-11-20T07:18:26.483Z,975.7
2018-11-20T07:19:27.629Z,975.9
2018-11-20T07:20:28.762Z,975.7
2018-11-20T07:21:29.987Z,975.8
2018-11-20T07:22:33.600Z,975.8
2018-11-20T07:23:34.712Z,975.7
2018-11-20T07:24:36.119Z,975.8
2018-11-20T07:25:37.287Z,975.6
2018-11-20T07:26:38.490Z,975.7
2018-11-20T07:27:41.899Z,975.6
2018-11-20T07:28:43.088Z,975.6
2018-11-20T07:29:47.161Z,975.7
2018-11-20T07:30:48.358Z,975.8
2018-11-20T07:31:49.585Z,975.7
2018-11-20T07:32:50.847Z,975.6
2018-11-20T07:33:55.035Z,975.5
2018-11-20T07:34:58.663Z,975.7
2018-11-20T07:35:59.908Z,975.7
2018-11-20T07:37:07.874Z,975.8
2018-11-20T07:38:08.952Z,975.7
2018-11-20T07:39:10.106Z,975.6
2018-11-20T07:40:11.275Z,975.7
2018-11-20T07:41:12.414Z,975.6
2018-11-20T07:42:13.665Z,975.5
2018-11-20T07:43:15.169Z,975.6
2018-11-20T07:44:16.346Z,975.5
2018-11-20T07:45:17.436Z,975.6
2018-11-20T07:46:18.706Z,975.5
2018-11-20T07:47:19.890Z,975.6
2018-11-20T07:48:21.132Z,975.6
2018-11-20T07:49:22.369Z,975.6
2018-11-20T07:50:23.836Z,975.5
2018-11-20T07:51:28.306Z,975.5
2018-11-20T07:52:31.813Z,975.5
2018-11-20T07:53:35.488Z,975.5
2018-11-20T07:54:36.758Z,975.4
2018-11-20T07:55:38.036Z,975.4
2018-11-20T07:56:39.463Z,975.4
2018-11-20T07:57:41.120Z,975.3
2018-11-20T07:58:42.463Z,975.4
2018-11-20T07:59:43.717Z,975.2
2018-11-20T08:00:44.922Z,975.4
2018-11-20T08:01:46.141Z,975.4
2018-11-20T08:02:47.307Z,975.1
2018-11-20T08:03:48.645Z,975.2
2018-11-20T08:04:52.191Z,975.2
2018-11-20T08:05:54.149Z,975.2
2018-11-20T08:06:55.285Z,975.3
2018-11-20T08:07:56.509Z,975.2
2018-11-20T08:08:57.736Z,975.2
2018-11-20T08:09:59.164Z,975.3
2018-11-20T08:11:02.075Z,975.3
2018-11-20T08:12:03.256Z,975.2
2018-11-20T08:13:04.478Z,975.2
2018-11-20T08:14:05.777Z,975.2
2018-11-20T08:15:06.969Z,975
2018-11-20T08:16:08.306Z,975.1
2018-11-20T08:17:09.590Z,975.1
2018-11-20T08:18:10.749Z,975.1
2018-11-20T08:19:11.982Z,975.1
2018-11-20T08:20:13.175Z,975.2
2018-11-20T08:21:18.738Z,975.2
2018-11-20T08:22:20.626Z,975.1
2018-11-20T08:23:22.586Z,975.2
2018-11-20T08:24:23.806Z,975.2
2018-11-20T08:25:27.429Z,975.1
2018-11-20T08:26:29.233Z,975
2018-11-20T08:27:30.284Z,975
2018-11-20T08:28:31.487Z,975
2018-11-20T08:29:32.914Z,974.9
2018-11-20T08:30:37.441Z,975.1
2018-11-20T08:31:38.620Z,975
2018-11-20T08:32:39.897Z,975.1
2018-11-20T08:33:41.118Z,975.1
2018-11-20T08:34:42.560Z,975.1
2018-11-20T08:35:46.286Z,975
2018-11-20T08:36:47.726Z,975
2018-11-20T08:37:49.912Z,975
2018-11-20T08:38:54.104Z,974.8
2018-11-20T08:39:56.002Z,975
2018-11-20T08:41:03.403Z,975
2018-11-20T08:42:10.882Z,975
2018-11-20T08:43:12.290Z,974.9
2018-11-20T08:44:13.502Z,974.9
2018-11-20T08:45:14.630Z,974.7
2018-11-20T08:46:15.909Z,974.8
2018-11-20T08:47:17.113Z,974.6
2018-11-20T08:48:18.554Z,974.8
2018-11-20T08:49:19.740Z,974.8
2018-11-20T08:50:20.978Z,974.9
2018-11-20T08:51:22.204Z,974.8
2018-11-20T08:52:24.615Z,974.9
2018-11-20T08:53:27.989Z,974.8
2018-11-20T08:54:29.205Z,974.7
2018-11-20T08:55:30.437Z,974.7
2018-11-20T08:56:32.095Z,974.8
2018-11-20T08:57:33.335Z,974.7
2018-11-20T08:58:34.534Z,974.7
2018-11-20T08:59:42.014Z,974.9
2018-11-20T09:00:43.274Z,974.8
2018-11-20T09:01:44.512Z,974.8
2018-11-20T09:02:45.792Z,974.9
2018-11-20T09:03:47.091Z,974.9
2018-11-20T09:04:48.337Z,974.9
2018-11-20T09:05:49.548Z,975.1
2018-11-20T09:06:50.937Z,975
2018-11-20T09:07:54.530Z,975.1
2018-11-20T09:08:58.183Z,975
2018-11-20T09:09:59.642Z,974.9
2018-11-20T09:11:01.085Z,975
2018-11-20T09:12:05.202Z,975
2018-11-20T09:13:06.536Z,975
2018-11-20T09:14:07.740Z,975.1
2018-11-20T09:15:08.983Z,975.1
2018-11-20T09:16:10.553Z,974.8
2018-11-20T09:17:11.770Z,974.9
2018-11-20T09:18:13.282Z,974.8
2018-11-20T09:19:14.520Z,974.9
2018-11-20T09:20:18.032Z,975
2018-11-20T09:21:19.799Z,975
2018-11-20T09:22:20.940Z,975
2018-11-20T09:23:22.131Z,975.1
2018-11-20T09:24:23.348Z,974.9
2018-11-20T09:25:24.820Z,975
2018-11-20T09:26:27.460Z,975.1
2018-11-20T09:27:28.636Z,975
2018-11-20T09:28:29.966Z,974.9
2018-11-20T09:29:31.167Z,975
2018-11-20T09:30:35.176Z,974.9
2018-11-20T09:31:38.990Z,974.9
2018-11-20T09:32:40.185Z,974.9
2018-11-20T09:33:41.375Z,974.9
2018-11-20T09:34:52.729Z,974.9
2018-11-20T09:35:53.879Z,974.9
2018-11-20T09:36:55.222Z,974.9
2018-11-20T09:37:56.437Z,974.8
2018-11-20T09:38:57.985Z,974.8
2018-11-20T09:40:04.290Z,974.9
2018-11-20T09:41:05.634Z,974.9
2018-11-20T09:42:06.886Z,974.6
2018-11-20T09:43:08.230Z,974.8
2018-11-20T09:44:09.617Z,974.8
2018-11-20T09:45:10.885Z,974.9
2018-11-20T09:46:12.085Z,974.9
2018-11-20T09:47:13.593Z,974.8
2018-11-20T09:48:14.672Z,974.8
2018-11-20T09:49:16.121Z,974.8
2018-11-20T09:50:17.572Z,974.8
2018-11-20T09:51:18.881Z,974.8
2018-11-20T09:52:21.458Z,974.9
2018-11-20T09:53:22.770Z,974.8
2018-11-20T09:54:24.018Z,974.9
2018-11-20T09:55:25.206Z,974.9
2018-11-20T09:56:27.089Z,974.9
2018-11-20T09:57:28.566Z,974.8
2018-11-20T09:58:29.791Z,974.8
2018-11-20T09:59:31.047Z,974.7
2018-11-20T10:00:32.252Z,974.7
2018-11-20T10:01:33.434Z,974.8
2018-11-20T10:02:39.020Z,974.8
2018-11-20T10:03:42.401Z,974.9
2018-11-20T10:04:43.544Z,974.7
2018-11-20T10:05:47.025Z,974.8
2018-11-20T10:06:48.360Z,974.8
2018-11-20T10:07:49.598Z,974.9
2018-11-20T10:09:05.264Z,974.8
2018-11-20T10:10:06.560Z,974.9
2018-11-20T10:11:07.783Z,974.9
2018-11-20T10:12:09.231Z,974.8
2018-11-20T10:13:16.976Z,974.7
2018-11-20T10:14:20.793Z,974.8
2018-11-20T10:15:21.738Z,974.9
2018-11-20T10:16:33.262Z,974.9
2018-11-20T10:17:34.448Z,974.9
2018-11-20T10:18:36.223Z,974.8
2018-11-20T10:19:37.453Z,974.9
2018-11-20T10:20:38.669Z,974.9
2018-11-20T10:21:39.948Z,974.9
2018-11-20T10:22:41.488Z,974.9
2018-11-20T10:23:42.705Z,975
2018-11-20T10:24:43.887Z,974.9
2018-11-20T10:25:48.336Z,975
2018-11-20T10:26:49.526Z,974.8
2018-11-20T10:27:50.727Z,974.8
2018-11-20T10:29:18.347Z,974.8
2018-11-20T10:30:19.590Z,974.8
2018-11-20T10:31:20.762Z,974.7
2018-11-20T10:32:22.312Z,974.6
2018-11-20T10:33:23.699Z,974.7
2018-11-20T10:34:24.967Z,974.7
2018-11-20T10:35:26.195Z,974.7
2018-11-20T10:36:30.277Z,974.7
2018-11-20T10:37:37.255Z,974.6
2018-11-20T10:38:38.440Z,974.7
2018-11-20T10:39:39.708Z,974.6
2018-11-20T10:40:40.933Z,974.6
2018-11-20T10:41:42.251Z,974.5
2018-11-20T10:42:43.631Z,974.5
2018-11-20T10:43:45.080Z,974.4
2018-11-20T10:44:47.022Z,974.4
2018-11-20T10:45:48.299Z,974.4
2018-11-20T10:46:49.523Z,974.6
2018-11-20T10:47:50.749Z,974.6
2018-11-20T10:48:54.984Z,974.5
2018-11-20T10:49:56.284Z,974.4
2018-11-20T10:50:57.461Z,974.5
2018-11-20T10:51:59.092Z,974.6
2018-11-20T10:53:01.071Z,974.6
2018-11-20T10:54:06.099Z,974.6
2018-11-20T10:55:09.441Z,974.5
2018-11-20T10:56:10.628Z,974.5
2018-11-20T10:57:11.896Z,974.5
2018-11-20T10:58:13.074Z,974.5
2018-11-20T10:59:19.543Z,974.5
2018-11-20T11:00:20.734Z,974.4
2018-11-20T11:01:22.153Z,974.4
2018-11-20T11:02:24.287Z,974.3
2018-11-20T11:03:25.471Z,974.2
2018-11-20T11:04:26.886Z,974.2
2018-11-20T11:05:29.305Z,974.3
2018-11-20T11:06:30.739Z,974.1
2018-11-20T11:07:35.942Z,974.1
2018-11-20T11:08:37.331Z,974.1
2018-11-20T11:09:38.758Z,974.1
2018-11-20T11:10:40.214Z,974.1
2018-11-20T11:11:46.863Z,974.1
2018-11-20T11:12:48.046Z,974.2
2018-11-20T11:13:51.578Z,974.2
2018-11-20T11:15:02.303Z,974.1
2018-11-20T11:16:03.553Z,974.1
2018-11-20T11:17:04.774Z,974.1
2018-11-20T11:18:05.940Z,974.2
2018-11-20T11:19:07.303Z,974.1
2018-11-20T11:20:10.874Z,974.1
2018-11-20T11:21:12.041Z,974.1
2018-11-20T11:22:13.256Z,974.1
2018-11-20T11:23:15.586Z,974.1
2018-11-20T11:24:16.964Z,974
2018-11-20T11:25:18.280Z,974.1
2018-11-20T11:26:19.498Z,974.1
2018-11-20T11:27:20.656Z,974.1
2018-11-20T11:28:34.669Z,974.1
2018-11-20T11:29:39.980Z,974.1
2018-11-20T11:30:41.223Z,974.1
2018-11-20T11:31:42.685Z,974.1
2018-11-20T11:32:43.878Z,974.1
2018-11-20T11:33:45.295Z,973.9
2018-11-20T11:34:46.481Z,974.1
2018-11-20T11:35:48.191Z,974.1
2018-11-20T11:36:50.118Z,974.1
2018-11-20T11:37:51.296Z,974.1
2018-11-20T11:38:52.454Z,974.1
2018-11-20T11:39:54.204Z,974.1
2018-11-20T11:40:55.441Z,973.8
2018-11-20T11:41:57.076Z,974
2018-11-20T11:42:58.735Z,974
2018-11-20T11:44:01.875Z,974
2018-11-20T11:45:03.057Z,974.1
2018-11-20T11:46:05.473Z,974.1
2018-11-20T11:47:07.753Z,974
2018-11-20T11:48:12.300Z,974
2018-11-20T11:49:16.383Z,974
2018-11-20T11:50:20.170Z,974
2018-11-20T11:51:34.687Z,973.8
2018-11-20T11:52:41.657Z,974
2018-11-20T11:53:58.709Z,974
2018-11-20T11:55:00.391Z,973.9
2018-11-20T11:56:01.922Z,973.9
2018-11-20T11:57:05.533Z,974
2018-11-20T11:58:07.200Z,974
2018-11-20T11:59:12.562Z,973.9
2018-11-20T12:00:13.724Z,973.8
2018-11-20T12:01:14.903Z,974
2018-11-20T12:03:29.776Z,973.9
2018-11-20T12:04:31.327Z,973.9
2018-11-20T12:05:34.234Z,973.8
2018-11-20T12:06:35.462Z,973.7
2018-11-20T12:07:36.976Z,973.8
2018-11-20T12:08:43.375Z,973.8
2018-11-20T12:09:44.577Z,973.9
2018-11-20T12:10:45.853Z,973.8
2018-11-20T12:11:47.225Z,973.8
2018-11-20T12:12:49.311Z,973.9
2018-11-20T12:15:00.142Z,973.8
2018-11-20T12:17:43.076Z,973.8
2018-11-20T12:18:47.591Z,973.7
2018-11-20T12:19:52.637Z,973.8
2018-11-20T12:21:02.793Z,973.8
2018-11-20T12:22:06.432Z,973.8
2018-11-20T12:23:07.759Z,973.7
2018-11-20T12:24:12.174Z,973.8
2018-11-20T12:25:14.680Z,973.8
2018-11-20T12:26:15.994Z,973.8
2018-11-20T12:27:22.303Z,973.8
2018-11-20T12:28:23.183Z,973.8
2018-11-20T12:29:24.766Z,973.9
2018-11-20T12:30:26.360Z,973.6
2018-11-20T12:31:31.039Z,973.7
2018-11-20T12:32:32.278Z,973.7
2018-11-20T12:33:37.552Z,973.4
2018-11-20T12:34:39.603Z,973.7
2018-11-20T12:35:42.784Z,973.7
2018-11-20T12:36:44.223Z,973.8
2018-11-20T12:37:45.598Z,973.7
2018-11-20T12:38:49.139Z,973.7
2018-11-20T12:39:50.670Z,973.7
2018-11-20T12:40:54.466Z,973.7
2018-11-20T12:41:58.125Z,973.6
2018-11-20T12:43:01.912Z,973.7
2018-11-20T12:44:05.865Z,973.7
2018-11-20T12:45:04.477Z,973.5
2018-11-20T12:46:05.785Z,973.7
2018-11-20T12:47:09.071Z,973.6
2018-11-20T12:48:11.239Z,973.6
2018-11-20T12:49:12.543Z,973.5
2018-11-20T12:50:14.001Z,973.6
2018-11-20T12:51:15.581Z,973.5
2018-11-20T12:52:16.913Z,973.7
2018-11-20T12:53:21.250Z,973.7
2018-11-20T12:54:20.296Z,973.7
2018-11-20T12:55:22.664Z,973.6
2018-11-20T12:56:33.929Z,973.6
2018-11-20T12:57:34.176Z,973.6
2018-11-20T12:58:35.396Z,973.7
2018-11-20T12:59:37.518Z,973.6
2018-11-20T13:00:39.419Z,973.5
2018-11-20T13:01:40.998Z,973.3
2018-11-20T13:02:42.319Z,973.5
2018-11-20T13:03:44.199Z,973.6
2018-11-20T13:04:45.635Z,973.4
2018-11-20T13:05:46.974Z,973.5
2018-11-20T13:06:48.703Z,973.4
2018-11-20T13:07:49.958Z,973.5
2018-11-20T13:08:57.649Z,973.4
2018-11-20T13:10:11.524Z,973.4
2018-11-20T13:11:14.533Z,973.3
2018-11-20T13:12:21.208Z,973.5
2018-11-20T13:13:27.385Z,973.4
2018-11-20T13:14:28.735Z,973.4
2018-11-20T13:15:32.162Z,973.3
2018-11-20T13:16:33.706Z,973.2
2018-11-20T13:17:35.861Z,973.2
2018-11-20T13:18:36.876Z,973.4
2018-11-20T13:19:44.491Z,973.3
2018-11-20T13:20:50.538Z,973.2
2018-11-20T13:21:51.600Z,973.3
2018-11-20T13:22:58.172Z,973.2
2018-11-20T13:23:59.489Z,973.4
2018-11-20T13:25:02.123Z,973.4
2018-11-20T13:26:03.633Z,973.2
2018-11-20T13:27:04.871Z,973.5
2018-11-20T13:28:06.311Z,973.4
2018-11-20T13:29:07.602Z,973.4